createdAt,value
2018-12-20T00:00:45.904Z,75.04
2018-12-20T00:03:13.459Z,74.86
2018-12-20T00:05:41.097Z,74.80
2018-12-20T00:08:08.560Z,74.61
2018-12-20T00:10:36.059Z,74.69
2018-12-20T00:13:03.932Z,74.65
2018-12-20T00:15:31.468Z,74.50
2018-12-20T00:17:58.910Z,74.57
2018-12-20T00:20:26.355Z,74.55
2018-12-20T00:22:53.823Z,74.27
2018-12-20T00:25:21.293Z,74.43
2018-12-20T00:27:48.723Z,74.76
2018-12-20T00:30:16.187Z,74.29
2018-12-20T00:32:43.739Z,74.36
2018-12-20T00:35:11.429Z,74.24
2018-12-20T00:37:38.959Z,74.27
2018-12-20T00:40:07.156Z,74.57
2018-12-20T00:42:34.960Z,74.41
2018-12-20T00:45:02.626Z,74.36
2018-12-20T00:47:30.348Z,74.20
2018-12-20T00:49:57.782Z,74.31
2018-12-20T00:52:25.295Z,74.08
2018-12-20T00:54:52.748Z,73.87
2018-12-20T00:57:20.212Z,73.67
2018-12-20T00:59:48.055Z,73.66
2018-12-20T01:02:15.621Z,73.76
2018-12-20T01:04:43.293Z,73.61
2018-12-20T01:07:10.686Z,73.70
2018-12-20T01:09:38.226Z,73.48
2018-12-20T01:12:05.790Z,73.46
2018-12-20T01:14:33.396Z,73.35
2018-12-20T01:17:01.052Z,73.37
2018-12-20T01:19:28.572Z,73.13
2018-12-20T01:21:56.037Z,73.15
2018-12-20T01:24:23.504Z,72.82
2018-12-20T01:26:51.015Z,72.81
2018-12-20T01:29:18.527Z,72.84
2018-12-20T01:31:46.231Z,72.79
2018-12-20T01:34:13.820Z,72.80
2018-12-20T01:36:41.740Z,73.13
2018-12-20T01:39:09.407Z,73.12
2018-12-20T01:41:37.024Z,73.12
2018-12-20T01:44:04.748Z,73.09
2018-12-20T01:46:32.218Z,73.11
2018-12-20T01:48:59.670Z,73.51
2018-12-20T01:51:27.250Z,73.08
2018-12-20T01:53:55.041Z,73.27
2018-12-20T01:56:22.932Z,73.61
2018-12-20T01:58:50.890Z,74.29
2018-12-20T02:01:18.522Z,73.93
2018-12-20T02:03:46.145Z,74.00
2018-12-20T02:06:13.993Z,74.43
2018-12-20T02:08:41.765Z,74.76
2018-12-20T02:11:09.362Z,74.82
2018-12-20T02:13:37.044Z,74.98
2018-12-20T02:16:04.484Z,75.14
2018-12-20T02:18:31.973Z,75.18
2018-12-20T02:20:59.544Z,75.49
2018-12-20T02:23:27.010Z,75.29
2018-12-20T02:25:54.508Z,75.47
2018-12-20T02:28:21.962Z,75.88
2018-12-20T02:30:49.433Z,75.90
2018-12-20T02:33:17.133Z,75.71
2018-12-20T02:35:44.583Z,75.73
2018-12-20T02:38:12.202Z,75.52
2018-12-20T02:40:40.017Z,75.49
2018-12-20T02:43:07.497Z,75.28
2018-12-20T02:45:34.989Z,75.25
2018-12-20T02:48:02.573Z,75.20
2018-12-20T02:50:29.991Z,74.69
2018-12-20T02:52:57.650Z,74.81
2018-12-20T02:55:25.532Z,75.10
2018-12-20T02:57:52.983Z,74.60
2018-12-20T03:00:20.520Z,74.62
2018-12-20T03:02:48.307Z,74.60
2018-12-20T03:05:15.857Z,74.57
2018-12-20T03:07:43.300Z,74.45
2018-12-20T03:10:10.830Z,74.60
2018-12-20T03:12:38.751Z,74.69
2018-12-20T03:15:07.256Z,74.53
2018-12-20T03:17:34.653Z,74.66
2018-12-20T03:20:02.608Z,74.62
2018-12-20T03:22:30.429Z,74.61
2018-12-20T03:24:57.840Z,74.59
2018-12-20T03:27:25.440Z,74.62
2018-12-20T03:29:53.165Z,74.80
2018-12-20T03:32:20.559Z,74.96
2018-12-20T03:34:47.974Z,75.27
2018-12-20T03:37:15.421Z,75.04
2018-12-20T03:39:42.820Z,75.00
2018-12-20T03:42:10.825Z,74.75
2018-12-20T03:44:38.363Z,74.88
2018-12-20T03:47:06.294Z,74.87
2018-12-20T03:49:34.114Z,75.05
2018-12-20T03:52:01.662Z,75.24
2018-12-20T03:54:29.396Z,75.20
2018-12-20T03:56:56.852Z,75.19
2018-12-20T03:59:24.457Z,75.17
2018-12-20T04:01:51.845Z,75.36
2018-12-20T04:04:19.294Z,75.38
2018-12-20T04:06:47.021Z,75.33
2018-12-20T04:09:14.648Z,75.50
2018-12-20T04:11:42.436Z,75.24
2018-12-20T04:14:09.928Z,75.09
2018-12-20T04:16:37.623Z,75.00
2018-12-20T04:19:05.521Z,75.00
2018-12-20T04:21:32.978Z,74.95
2018-12-20T04:24:00.500Z,75.19
2018-12-20T04:26:28.434Z,75.02
2018-12-20T04:28:55.889Z,75.11
2018-12-20T04:31:23.479Z,75.12
2018-12-20T04:33:51.124Z,74.82
2018-12-20T04:36:18.580Z,74.58
2018-12-20T04:38:46.175Z,74.81
2018-12-20T04:41:14.287Z,74.66
2018-12-20T04:43:41.818Z,74.77
2018-12-20T04:46:09.564Z,74.76
2018-12-20T04:48:37.313Z,75.17
2018-12-20T04:51:05.174Z,75.12
2018-12-20T04:53:32.973Z,75.20
2018-12-20T04:56:00.959Z,75.34
2018-12-20T04:58:28.577Z,75.47
2018-12-20T05:00:56.366Z,75.14
2018-12-20T05:03:23.919Z,75.31
2018-12-20T05:05:51.567Z,75.26
2018-12-20T05:08:19.232Z,75.71
2018-12-20T05:10:46.717Z,75.92
2018-12-20T05:13:14.595Z,75.89
2018-12-20T05:15:42.058Z,76.29
2018-12-20T05:18:09.886Z,76.75
2018-12-20T05:20:37.409Z,77.18
2018-12-20T05:23:05.263Z,77.66
2018-12-20T05:25:33.057Z,77.63
2018-12-20T05:28:00.453Z,77.79
2018-12-20T05:30:27.845Z,77.96
2018-12-20T05:32:55.371Z,77.91
2018-12-20T05:35:22.932Z,77.93
2018-12-20T05:37:50.461Z,78.08
2018-12-20T05:40:18.389Z,78.53
2018-12-20T05:42:46.099Z,78.41
2018-12-20T05:45:13.575Z,78.36
2018-12-20T05:47:41.080Z,78.08
2018-12-20T05:50:08.573Z,78.18
2018-12-20T05:52:36.011Z,78.11
2018-12-20T05:55:03.566Z,78.09
2018-12-20T05:57:31.202Z,78.21
2018-12-20T05:59:58.739Z,78.35
2018-12-20T06:02:26.261Z,78.54
2018-12-20T06:04:53.720Z,78.96
2018-12-20T06:07:21.140Z,78.92
2018-12-20T06:09:48.564Z,79.10
2018-12-20T06:12:16.183Z,79.05
2018-12-20T06:14:44.001Z,79.18
2018-12-20T06:17:11.707Z,79.19
2018-12-20T06:19:39.117Z,79.26
2018-12-20T06:22:06.606Z,79.13
2018-12-20T06:24:34.212Z,79.09
2018-12-20T06:27:01.601Z,79.18
2018-12-20T06:29:29.112Z,79.42
2018-12-20T06:31:56.497Z,79.55
2018-12-20T06:34:23.894Z,79.37
2018-12-20T06:36:51.369Z,79.30
2018-12-20T06:39:18.753Z,79.06
2018-12-20T06:41:46.148Z,79.30
2018-12-20T06:44:13.536Z,79.43
2018-12-20T06:46:42.959Z,79.63
2018-12-20T06:49:10.465Z,79.43
2018-12-20T06:51:37.908Z,79.56
2018-12-20T06:54:05.346Z,79.63
2018-12-20T06:56:32.741Z,79.70
2018-12-20T06:59:00.132Z,79.44
2018-12-20T07:01:27.524Z,79.27
2018-12-20T07:03:55.009Z,79.38
2018-12-20T07:06:22.455Z,79.37
2018-12-20T07:08:50.272Z,79.06
2018-12-20T07:11:17.674Z,78.86
2018-12-20T07:13:45.056Z,78.72
2018-12-20T07:16:12.451Z,78.59
2018-12-20T07:18:39.885Z,78.36
2018-12-20T07:21:07.281Z,78.35
2018-12-20T07:23:34.774Z,78.02
2018-12-20T07:26:02.232Z,77.94
2018-12-20T07:28:29.626Z,77.88
2018-12-20T07:30:57.031Z,77.99
2018-12-20T07:33:24.405Z,77.82
2018-12-20T07:35:51.788Z,77.72
2018-12-20T07:38:19.173Z,77.39
2018-12-20T07:40:46.687Z,77.18
2018-12-20T07:43:14.152Z,76.90
2018-12-20T07:45:41.586Z,77.05
2018-12-20T07:48:08.972Z,76.44
2018-12-20T07:50:36.352Z,76.60
2018-12-20T07:53:03.793Z,76.42
2018-12-20T07:55:31.189Z,76.03
2018-12-20T07:57:58.582Z,75.65
2018-12-20T08:00:27.901Z,75.62
2018-12-20T08:02:55.297Z,76.00
2018-12-20T08:05:22.681Z,75.30
2018-12-20T08:07:50.200Z,75.04
2018-12-20T08:10:17.643Z,75.09
2018-12-20T08:12:45.016Z,75.04
2018-12-20T08:15:12.404Z,74.95
2018-12-20T08:17:39.836Z,75.13
2018-12-20T08:20:07.486Z,74.54
2018-12-20T08:22:34.855Z,74.81
2018-12-20T08:25:02.297Z,74.24
2018-12-20T08:27:29.748Z,74.18
2018-12-20T08:29:57.140Z,74.22
2018-12-20T08:32:24.529Z,73.87
2018-12-20T08:34:52.245Z,74.24
2018-12-20T08:37:19.698Z,73.82
2018-12-20T08:39:47.289Z,73.68
2018-12-20T08:42:14.674Z,73.42
2018-12-20T08:44:42.064Z,73.48
2018-12-20T08:47:09.436Z,73.30
2018-12-20T08:49:36.820Z,72.78
2018-12-20T08:52:04.378Z,72.75
2018-12-20T08:54:31.801Z,72.88
2018-12-20T08:56:59.231Z,72.96
2018-12-20T08:59:26.617Z,72.62
2018-12-20T09:01:54.089Z,72.79
2018-12-20T09:04:21.521Z,73.00
2018-12-20T09:06:48.906Z,72.63
2018-12-20T09:09:16.549Z,72.63
2018-12-20T09:11:43.934Z,72.41
2018-12-20T09:14:11.313Z,72.84
2018-12-20T09:16:38.748Z,72.75
2018-12-20T09:19:06.201Z,73.05
2018-12-20T09:21:33.588Z,73.15
2018-12-20T09:24:00.975Z,73.39
2018-12-20T09:26:28.397Z,72.92
2018-12-20T09:28:55.830Z,72.72
2018-12-20T09:31:23.212Z,72.42
2018-12-20T09:33:50.807Z,72.77
2018-12-20T09:36:18.192Z,72.25
2018-12-20T09:38:45.648Z,72.27
2018-12-20T09:41:13.284Z,72.04
2018-12-20T09:43:40.692Z,72.01
2018-12-20T09:46:08.052Z,72.41
2018-12-20T09:48:35.442Z,71.88
2018-12-20T09:51:02.821Z,72.18
2018-12-20T09:53:30.245Z,72.20
2018-12-20T09:55:57.721Z,72.34
2018-12-20T09:58:25.100Z,72.76
2018-12-20T10:00:52.481Z,72.98
2018-12-20T10:03:19.885Z,73.49
2018-12-20T10:05:47.274Z,73.37
2018-12-20T10:08:14.664Z,74.29
2018-12-20T10:10:42.054Z,74.17
2018-12-20T10:13:09.516Z,74.43
2018-12-20T10:15:37.235Z,74.75
2018-12-20T10:18:05.012Z,74.42
2018-12-20T10:20:32.522Z,74.72
2018-12-20T10:22:59.993Z,74.62
2018-12-20T10:25:27.381Z,75.10
2018-12-20T10:27:54.761Z,74.88
2018-12-20T10:30:22.192Z,75.03
2018-12-20T10:32:49.626Z,75.20
2018-12-20T10:35:17.019Z,75.07
2018-12-20T10:37:44.405Z,75.03
2018-12-20T10:40:11.832Z,75.01
2018-12-20T10:42:39.277Z,74.92
2018-12-20T10:45:06.753Z,75.14
2018-12-20T10:47:34.216Z,75.24
2018-12-20T10:50:01.604Z,75.29
2018-12-20T10:52:29.029Z,75.04
2018-12-20T10:54:56.665Z,74.98
2018-12-20T10:57:24.086Z,74.93
2018-12-20T10:59:51.552Z,74.92
2018-12-20T11:02:24.550Z,74.83
2018-12-20T11:04:57.578Z,75.04
2018-12-20T11:07:30.685Z,74.88
2018-12-20T11:10:03.780Z,74.85
2018-12-20T11:12:36.689Z,74.59
2018-12-20T11:15:05.569Z,74.49
2018-12-20T11:17:37.353Z,74.52
2018-12-20T11:20:02.411Z,74.36
2018-12-20T11:22:29.873Z,73.32
2018-12-20T11:24:57.265Z,73.29
2018-12-20T11:27:24.721Z,73.06
2018-12-20T11:29:52.122Z,72.95
2018-12-20T11:32:19.548Z,72.84
2018-12-20T11:34:47.022Z,73.02
2018-12-20T11:37:14.488Z,73.25
2018-12-20T11:39:41.996Z,72.77
2018-12-20T11:42:09.385Z,72.70
2018-12-20T11:44:36.764Z,72.56
2018-12-20T11:47:04.242Z,72.30
2018-12-20T11:49:31.711Z,72.23
2018-12-20T11:51:59.140Z,71.81
2018-12-20T11:54:26.560Z,71.11
2018-12-20T11:56:54.048Z,70.43
2018-12-20T11:59:21.434Z,70.14
2018-12-20T12:01:48.817Z,69.63
2018-12-20T12:04:16.241Z,69.56
2018-12-20T12:06:43.620Z,69.51
2018-12-20T12:09:11.076Z,69.07
2018-12-20T12:11:38.469Z,69.23
2018-12-20T12:14:05.857Z,69.47
2018-12-20T12:19:35.963Z,67.50
2018-12-20T12:22:03.447Z,67.31
2018-12-20T12:24:32.981Z,66.89
2018-12-20T12:27:01.201Z,66.44
2018-12-20T12:29:28.640Z,66.69
2018-12-20T12:31:56.265Z,66.05
2018-12-20T12:34:23.792Z,65.36
2018-12-20T12:36:51.168Z,64.19
2018-12-20T12:39:18.553Z,64.31
2018-12-20T12:41:46.045Z,64.26
2018-12-20T12:44:13.561Z,64.38
2018-12-20T12:46:40.964Z,64.13
2018-12-20T12:49:08.348Z,63.95
2018-12-20T12:51:35.737Z,64.16
2018-12-20T12:54:03.181Z,64.45
2018-12-20T12:59:33.760Z,64.15
2018-12-20T13:02:01.352Z,63.84
2018-12-20T13:04:29.090Z,63.99
2018-12-20T13:06:56.528Z,63.57
2018-12-20T13:09:24.008Z,63.74
2018-12-20T13:11:51.465Z,63.52
2018-12-20T13:14:18.989Z,63.88
2018-12-20T13:16:46.928Z,64.45
2018-12-20T13:19:14.652Z,64.45
2018-12-20T13:21:42.096Z,63.95
2018-12-20T13:24:09.973Z,64.85
2018-12-20T13:26:37.448Z,64.61
2018-12-20T13:29:04.832Z,63.92
2018-12-20T13:31:32.301Z,64.03
2018-12-20T13:33:59.801Z,64.07
2018-12-20T13:36:27.462Z,64.31
2018-12-20T13:38:54.850Z,63.99
2018-12-20T13:41:22.285Z,64.51
2018-12-20T13:43:49.664Z,63.48
2018-12-20T13:46:17.091Z,62.61
2018-12-20T13:48:44.776Z,62.73
2018-12-20T13:51:12.421Z,62.59
2018-12-20T13:53:39.840Z,63.03
2018-12-20T13:56:07.390Z,61.98
2018-12-20T13:58:34.781Z,62.54
2018-12-20T14:01:02.235Z,62.06
2018-12-20T14:03:29.697Z,61.63
2018-12-20T14:05:57.088Z,62.22
2018-12-20T14:08:24.494Z,61.21
2018-12-20T14:10:51.956Z,61.79
2018-12-20T14:13:19.593Z,61.42
2018-12-20T14:15:46.980Z,61.49
2018-12-20T14:18:14.504Z,61.67
2018-12-20T14:20:41.961Z,61.96
2018-12-20T14:23:09.350Z,62.58
2018-12-20T14:25:36.824Z,63.41
2018-12-20T14:28:04.193Z,64.83
2018-12-20T14:30:31.806Z,65.48
2018-12-20T14:32:59.205Z,66.15
2018-12-20T14:35:26.801Z,67.27
2018-12-20T14:37:54.228Z,67.94
2018-12-20T14:40:22.390Z,68.78
2018-12-20T14:42:49.968Z,69.98
2018-12-20T14:45:17.429Z,70.39
2018-12-20T14:47:44.969Z,70.92
2018-12-20T14:50:12.872Z,71.18
2018-12-20T14:52:40.411Z,72.01
2018-12-20T14:55:09.156Z,72.35
2018-12-20T14:57:36.660Z,72.80
2018-12-20T15:00:06.078Z,73.10
2018-12-20T15:02:33.454Z,73.70
2018-12-20T15:10:45.712Z,74.42
2018-12-20T15:13:13.188Z,74.65
2018-12-20T15:15:40.664Z,74.93
2018-12-20T15:18:08.050Z,74.57
2018-12-20T15:20:40.600Z,74.85
2018-12-20T15:23:04.948Z,74.97
2018-12-20T15:25:32.771Z,74.97
2018-12-20T15:28:00.241Z,75.05
2018-12-20T15:30:28.049Z,74.88
2018-12-20T15:32:55.482Z,75.29
2018-12-20T15:35:23.089Z,75.02
2018-12-20T15:37:50.576Z,74.87
2018-12-20T15:40:17.996Z,74.91
2018-12-20T15:42:46.177Z,74.79
2018-12-20T15:45:13.694Z,74.83
2018-12-20T15:47:41.161Z,74.95
2018-12-20T15:50:08.642Z,74.99
2018-12-20T15:52:36.156Z,74.44
2018-12-20T15:55:05.131Z,74.27
2018-12-20T15:57:32.580Z,73.78
2018-12-20T15:59:59.963Z,73.67
2018-12-20T16:02:28.277Z,73.03
2018-12-20T16:04:55.720Z,72.68
2018-12-20T16:07:23.216Z,72.49
2018-12-20T16:09:50.673Z,72.07
2018-12-20T16:12:18.123Z,72.18
2018-12-20T16:14:45.985Z,71.82
2018-12-20T16:17:13.349Z,71.84
2018-12-20T16:19:40.800Z,71.88
2018-12-20T16:22:08.185Z,71.51
2018-12-20T16:24:35.579Z,70.97
2018-12-20T16:27:03.252Z,70.51
2018-12-20T16:29:30.760Z,70.04
2018-12-20T16:31:58.195Z,70.63
2018-12-20T16:34:25.625Z,70.87
2018-12-20T16:36:53.103Z,70.81
2018-12-20T16:39:20.487Z,69.87
2018-12-20T16:41:48.146Z,69.68
2018-12-20T16:44:15.524Z,70.11
2018-12-20T16:46:42.924Z,70.30
2018-12-20T16:49:13.670Z,69.51
2018-12-20T16:51:40.285Z,70.04
2018-12-20T16:54:07.751Z,70.09
2018-12-20T16:56:35.205Z,70.86
2018-12-20T16:59:02.666Z,71.46
2018-12-20T17:01:30.326Z,71.95
2018-12-20T17:03:57.931Z,72.82
2018-12-20T17:06:25.360Z,72.75
2018-12-20T17:08:52.828Z,73.00
2018-12-20T17:11:20.285Z,73.44
2018-12-20T17:13:48.025Z,73.95
2018-12-20T17:16:15.404Z,74.00
2018-12-20T17:18:42.805Z,74.29
2018-12-20T17:21:10.811Z,74.68
2018-12-20T17:23:38.209Z,75.03
2018-12-20T17:26:05.736Z,74.95
2018-12-20T17:28:33.185Z,75.37
2018-12-20T17:31:00.832Z,75.24
2018-12-20T17:33:28.299Z,75.44
2018-12-20T17:35:55.713Z,75.69
2018-12-20T17:38:23.115Z,75.78
2018-12-20T17:40:50.663Z,76.00
2018-12-20T17:43:18.102Z,75.70
2018-12-20T17:45:45.601Z,75.67
2018-12-20T17:48:13.004Z,75.36
2018-12-20T17:50:40.658Z,75.55
2018-12-20T17:53:08.181Z,75.43
2018-12-20T17:55:35.793Z,75.67
2018-12-20T17:58:03.258Z,75.78
2018-12-20T18:00:30.734Z,75.77
2018-12-20T18:02:58.162Z,75.76
2018-12-20T18:05:25.568Z,75.99
2018-12-20T18:07:53.552Z,76.00
2018-12-20T18:10:21.025Z,76.03
2018-12-20T18:12:48.532Z,76.28
2018-12-20T18:15:16.066Z,76.49
2018-12-20T18:17:43.533Z,76.68
2018-12-20T18:20:11.217Z,76.86
2018-12-20T18:22:38.689Z,76.91
2018-12-20T18:25:06.522Z,76.75
2018-12-20T18:27:34.090Z,76.88
2018-12-20T18:30:01.526Z,76.72
2018-12-20T18:32:28.917Z,76.90
2018-12-20T18:34:56.300Z,76.82
2018-12-20T18:37:23.897Z,76.45
2018-12-20T18:39:51.335Z,76.45
2018-12-20T18:42:18.734Z,76.54
2018-12-20T18:44:47.371Z,76.67
2018-12-20T18:47:14.817Z,76.59
2018-12-20T18:49:47.477Z,76.53
2018-12-20T18:52:11.637Z,76.61
2018-12-20T18:54:39.225Z,76.36
2018-12-20T18:57:06.693Z,75.67
2018-12-20T18:59:34.097Z,75.64
2018-12-20T19:02:01.978Z,75.90
2018-12-20T19:04:29.547Z,76.17
2018-12-20T19:06:56.949Z,76.63
2018-12-20T19:09:24.469Z,76.59
2018-12-20T19:11:51.943Z,76.80
2018-12-20T19:14:19.537Z,76.75
2018-12-20T19:16:47.049Z,76.81
2018-12-20T19:19:14.446Z,76.97
2018-12-20T19:21:42.009Z,77.05
2018-12-20T19:24:09.661Z,77.10
2018-12-20T19:26:37.094Z,76.73
2018-12-20T19:29:04.593Z,76.64
2018-12-20T19:31:31.971Z,76.89
2018-12-20T19:33:59.459Z,77.08
2018-12-20T19:36:27.029Z,76.90
2018-12-20T19:38:54.510Z,77.08
2018-12-20T19:41:22.246Z,77.11
2018-12-20T19:43:49.705Z,77.29
2018-12-20T19:46:17.253Z,77.32
2018-12-20T19:48:45.035Z,77.19
2018-12-20T19:51:12.490Z,76.92
2018-12-20T19:53:39.939Z,77.21
2018-12-20T19:56:07.455Z,77.50
2018-12-20T19:58:34.950Z,77.47
2018-12-20T20:01:02.511Z,77.70
2018-12-20T20:03:29.893Z,77.69
2018-12-20T20:05:57.381Z,77.75
2018-12-20T20:08:24.837Z,77.70
2018-12-20T20:10:52.797Z,77.63
2018-12-20T20:13:20.181Z,77.63
2018-12-20T20:15:47.670Z,77.55
2018-12-20T20:18:15.396Z,77.63
2018-12-20T20:20:42.977Z,77.32
2018-12-20T20:23:10.604Z,77.31
2018-12-20T20:25:38.027Z,77.00
2018-12-20T20:28:05.479Z,76.93
2018-12-20T20:30:33.190Z,77.01
2018-12-20T20:33:00.679Z,76.62
2018-12-20T20:35:28.219Z,76.63
2018-12-20T20:37:55.650Z,76.56
2018-12-20T20:40:23.095Z,76.56
2018-12-20T20:42:50.717Z,76.77
2018-12-20T20:45:18.108Z,76.87
2018-12-20T20:47:45.552Z,76.65
2018-12-20T20:50:22.033Z,76.72
2018-12-20T20:52:43.128Z,76.99
2018-12-20T20:55:10.615Z,76.99
2018-12-20T20:57:38.216Z,77.15
2018-12-20T21:00:09.234Z,77.02
2018-12-20T21:02:36.639Z,77.25
2018-12-20T21:05:05.348Z,77.16
2018-12-20T21:07:32.895Z,77.44
2018-12-20T21:10:00.320Z,77.42
2018-12-20T21:12:27.940Z,77.54
2018-12-20T21:14:55.384Z,77.84
2018-12-20T21:17:22.903Z,77.91
2018-12-20T21:19:50.450Z,77.96
2018-12-20T21:22:18.178Z,77.97
2018-12-20T21:24:45.645Z,77.84
2018-12-20T21:27:13.126Z,78.12
2018-12-20T21:29:40.546Z,77.71
2018-12-20T21:32:07.970Z,77.62
2018-12-20T21:34:35.738Z,77.86
2018-12-20T21:37:03.314Z,77.87
2018-12-20T21:39:30.723Z,77.80
2018-12-20T21:41:58.495Z,77.70
2018-12-20T21:44:25.927Z,77.55
2018-12-20T21:46:53.821Z,77.40
2018-12-20T21:49:21.278Z,77.48
2018-12-20T21:51:48.673Z,77.34
2018-12-20T21:54:16.065Z,77.44
2018-12-20T21:56:43.652Z,77.28
2018-12-20T21:59:11.111Z,77.31
2018-12-20T22:01:38.701Z,76.75
2018-12-20T22:04:06.176Z,76.65
2018-12-20T22:06:33.892Z,76.30
2018-12-20T22:09:01.285Z,76.30
2018-12-20T22:11:28.805Z,76.21
2018-12-20T22:13:56.270Z,76.23
2018-12-20T22:16:23.665Z,76.04
2018-12-20T22:18:51.076Z,75.98
2018-12-20T22:21:18.786Z,75.87
2018-12-20T22:23:46.288Z,75.53
2018-12-20T22:26:13.960Z,74.93
2018-12-20T22:28:42.163Z,75.03
2018-12-20T22:31:09.545Z,74.93
2018-12-20T22:33:37.014Z,74.78
2018-12-20T22:36:04.445Z,74.50
2018-12-20T22:38:31.841Z,74.35
2018-12-20T22:40:59.232Z,74.09
2018-12-20T22:43:26.981Z,74.02
2018-12-20T22:45:54.434Z,74.15
2018-12-20T22:48:22.002Z,73.87
2018-12-20T22:50:55.892Z,73.82
2018-12-20T22:53:18.993Z,73.37
2018-12-20T22:55:46.408Z,72.98
2018-12-20T22:58:14.189Z,73.11
2018-12-20T23:00:44.305Z,73.22
2018-12-20T23:03:11.737Z,73.00
2018-12-20T23:05:39.148Z,72.92
2018-12-20T23:08:07.603Z,72.33
2018-12-20T23:10:35.163Z,72.30
2018-12-20T23:13:02.619Z,72.34
2018-12-20T23:15:30.081Z,72.11
2018-12-20T23:17:57.474Z,72.23
2018-12-20T23:20:24.857Z,72.55
2018-12-20T23:22:52.440Z,72.30
2018-12-20T23:25:19.878Z,72.19
2018-12-20T23:27:47.360Z,71.82
2018-12-20T23:30:14.953Z,71.35
2018-12-20T23:32:42.682Z,71.42
2018-12-20T23:35:10.548Z,71.77
2018-12-20T23:37:38.017Z,71.55
2018-12-20T23:40:05.779Z,71.58
2018-12-20T23:42:33.204Z,71.64
2018-12-20T23:45:01.373Z,71.30
2018-12-20T23:47:29.412Z,71.59
2018-12-20T23:49:56.938Z,71.73
2018-12-20T23:52:24.528Z,71.15
2018-12-20T23:54:52.093Z,70.87
2018-12-20T23:57:19.490Z,71.18
2018-12-20T23:59:46.898Z,71.08
